Terminal Aerodrome Forecast
Issued by NWS

Home | Current Version | Previous Version | Text Only | Print | Product List | Glossary On
Versions: 1 2 3 4 5 6 7 8 9 10 11 12 13 14 15 16 17 18 19
560
FTUS45 KRIW 221137
TAFBPI
TAF
KBPI 221137Z 2212/2312 16010KT P6SM VCSH SCT040 BKN070
     FM221700 15010KT 6SM -SHRA SCT030 OVC050
     FM221900 16008KT 5SM -SHRA VCTS SCT025CB BKN040
     FM230200 12007KT 6SM -SHRA SCT030 BKN040=

USA.gov is the U.S. government's official web portal to all federal, state and local government web resources and services.